sensor_id;sensor_type;location;lat;lon;timestamp;temperature;humidity
21612;DHT22;47005;52.292;13.452;2023-05-07T00:00:17;10.90;99.60
21612;DHT22;47005;52.292;13.452;2023-05-07T00:02:44;11.00;99.70
21612;DHT22;47005;52.292;13.452;2023-05-07T00:05:10;10.90;99.70
21612;DHT22;47005;52.292;13.452;2023-05-07T00:07:36;11.00;99.60
21612;DHT22;47005;52.292;13.452;2023-05-07T00:10:03;10.90;99.60
21612;DHT22;47005;52.292;13.452;2023-05-07T00:12:29;10.90;99.60
21612;DHT22;47005;52.292;13.452;2023-05-07T00:14:57;11.00;99.50
21612;DHT22;47005;52.292;13.452;2023-05-07T00:17:23;11.00;99.30
21612;DHT22;47005;52.292;13.452;2023-05-07T00:19:48;11.00;99.60
21612;DHT22;47005;52.292;13.452;2023-05-07T00:22:14;11.00;99.50
21612;DHT22;47005;52.292;13.452;2023-05-07T00:24:40;11.00;99.50
21612;DHT22;47005;52.292;13.452;2023-05-07T00:27:05;11.00;99.30
21612;DHT22;47005;52.292;13.452;2023-05-07T00:29:31;11.00;99.40
21612;DHT22;47005;52.292;13.452;2023-05-07T00:31:56;11.00;99.40
21612;DHT22;47005;52.292;13.452;2023-05-07T00:34:22;11.00;99.40
21612;DHT22;47005;52.292;13.452;2023-05-07T00:36:48;11.00;99.40
21612;DHT22;47005;52.292;13.452;2023-05-07T00:39:14;11.00;99.50
21612;DHT22;47005;52.292;13.452;2023-05-07T00:41:39;11.00;99.70
21612;DHT22;47005;52.292;13.452;2023-05-07T00:44:05;11.00;99.50
21612;DHT22;47005;52.292;13.452;2023-05-07T00:46:31;11.00;99.40
21612;DHT22;47005;52.292;13.452;2023-05-07T00:48:58;11.00;99.30
21612;DHT22;47005;52.292;13.452;2023-05-07T00:51:25;11.00;99.30
21612;DHT22;47005;52.292;13.452;2023-05-07T00:53:53;11.00;99.30
21612;DHT22;47005;52.292;13.452;2023-05-07T00:56:22;11.00;99.50
21612;DHT22;47005;52.292;13.452;2023-05-07T00:58:48;11.00;99.30
21612;DHT22;47005;52.292;13.452;2023-05-07T01:01:14;11.00;99.50
21612;DHT22;47005;52.292;13.452;2023-05-07T01:03:42;11.00;99.30
21612;DHT22;47005;52.292;13.452;2023-05-07T01:06:09;11.00;99.40
21612;DHT22;47005;52.292;13.452;2023-05-07T01:08:35;10.90;99.60
21612;DHT22;47005;52.292;13.452;2023-05-07T01:11:02;11.00;99.50
21612;DHT22;47005;52.292;13.452;2023-05-07T01:13:29;11.00;99.50
21612;DHT22;47005;52.292;13.452;2023-05-07T01:15:55;11.00;99.40
21612;DHT22;47005;52.292;13.452;2023-05-07T01:18:20;11.00;99.30
21612;DHT22;47005;52.292;13.452;2023-05-07T01:20:47;11.00;99.20
21612;DHT22;47005;52.292;13.452;2023-05-07T01:23:13;11.00;99.30
21612;DHT22;47005;52.292;13.452;2023-05-07T01:25:38;11.00;99.30
21612;DHT22;47005;52.292;13.452;2023-05-07T01:28:04;11.00;99.30
21612;DHT22;47005;52.292;13.452;2023-05-07T01:30:31;11.00;99.30
21612;DHT22;47005;52.292;13.452;2023-05-07T01:33:11;11.00;99.30
21612;DHT22;47005;52.292;13.452;2023-05-07T01:35:41;11.00;99.50
21612;DHT22;47005;52.292;13.452;2023-05-07T01:38:10;11.00;99.30
21612;DHT22;47005;52.292;13.452;2023-05-07T01:40:35;11.00;99.40
21612;DHT22;47005;52.292;13.452;2023-05-07T01:43:05;11.00;99.30
21612;DHT22;47005;52.292;13.452;2023-05-07T01:45:31;11.00;99.20
21612;DHT22;47005;52.292;13.452;2023-05-07T01:47:58;11.00;99.20
21612;DHT22;47005;52.292;13.452;2023-05-07T01:50:25;11.00;99.40
21612;DHT22;47005;52.292;13.452;2023-05-07T01:52:51;11.00;99.40
21612;DHT22;47005;52.292;13.452;2023-05-07T01:55:18;11.00;99.20
21612;DHT22;47005;52.292;13.452;2023-05-07T01:57:43;11.00;99.20
21612;DHT22;47005;52.292;13.452;2023-05-07T02:00:10;11.00;99.30
21612;DHT22;47005;52.292;13.452;2023-05-07T02:02:35;11.00;99.10
21612;DHT22;47005;52.292;13.452;2023-05-07T02:05:01;11.00;99.20
21612;DHT22;47005;52.292;13.452;2023-05-07T02:07:30;11.00;99.20
21612;DHT22;47005;52.292;13.452;2023-05-07T02:09:55;10.90;99.10
21612;DHT22;47005;52.292;13.452;2023-05-07T02:12:22;10.90;99.20
21612;DHT22;47005;52.292;13.452;2023-05-07T02:14:48;11.00;99.20
21612;DHT22;47005;52.292;13.452;2023-05-07T02:17:13;10.90;99.20
21612;DHT22;47005;52.292;13.452;2023-05-07T02:19:39;10.90;99.10
21612;DHT22;47005;52.292;13.452;2023-05-07T02:22:05;10.90;99.00
21612;DHT22;47005;52.292;13.452;2023-05-07T02:24:30;11.00;99.10
21612;DHT22;47005;52.292;13.452;2023-05-07T02:26:56;10.90;99.00
21612;DHT22;47005;52.292;13.452;2023-05-07T02:29:22;10.90;99.00
21612;DHT22;47005;52.292;13.452;2023-05-07T02:31:47;10.90;99.00
21612;DHT22;47005;52.292;13.452;2023-05-07T02:34:16;10.90;98.90
21612;DHT22;47005;52.292;13.452;2023-05-07T02:36:42;10.90;98.90
21612;DHT22;47005;52.292;13.452;2023-05-07T02:39:08;10.90;98.90
21612;DHT22;47005;52.292;13.452;2023-05-07T02:41:33;10.90;98.80
21612;DHT22;47005;52.292;13.452;2023-05-07T02:44:02;10.90;98.80
21612;DHT22;47005;52.292;13.452;2023-05-07T02:46:27;10.90;98.90
21612;DHT22;47005;52.292;13.452;2023-05-07T02:48:53;10.90;98.80
21612;DHT22;47005;52.292;13.452;2023-05-07T02:51:20;10.90;98.70
21612;DHT22;47005;52.292;13.452;2023-05-07T02:53:46;10.90;98.70
21612;DHT22;47005;52.292;13.452;2023-05-07T02:56:12;10.90;98.80
21612;DHT22;47005;52.292;13.452;2023-05-07T02:58:38;10.90;98.70
21612;DHT22;47005;52.292;13.452;2023-05-07T03:01:08;10.90;98.60
21612;DHT22;47005;52.292;13.452;2023-05-07T03:03:34;10.90;98.70
21612;DHT22;47005;52.292;13.452;2023-05-07T03:06:00;10.90;98.80
21612;DHT22;47005;52.292;13.452;2023-05-07T03:08:25;10.90;99.20
21612;DHT22;47005;52.292;13.452;2023-05-07T03:10:51;10.90;98.70
21612;DHT22;47005;52.292;13.452;2023-05-07T03:13:17;10.80;98.90
21612;DHT22;47005;52.292;13.452;2023-05-07T03:15:43;10.80;98.70
21612;DHT22;47005;52.292;13.452;2023-05-07T03:18:08;10.90;98.80
21612;DHT22;47005;52.292;13.452;2023-05-07T03:20:34;10.90;98.70
21612;DHT22;47005;52.292;13.452;2023-05-07T03:23:01;10.80;98.70
21612;DHT22;47005;52.292;13.452;2023-05-07T03:25:27;10.80;98.60
21612;DHT22;47005;52.292;13.452;2023-05-07T03:27:53;10.80;98.60
21612;DHT22;47005;52.292;13.452;2023-05-07T03:30:19;10.80;98.50
21612;DHT22;47005;52.292;13.452;2023-05-07T03:32:48;10.80;98.50
21612;DHT22;47005;52.292;13.452;2023-05-07T03:35:13;10.80;98.40
21612;DHT22;47005;52.292;13.452;2023-05-07T03:37:40;10.80;98.40
21612;DHT22;47005;52.292;13.452;2023-05-07T03:40:06;10.80;98.40
21612;DHT22;47005;52.292;13.452;2023-05-07T03:42:32;10.80;98.40
21612;DHT22;47005;52.292;13.452;2023-05-07T03:44:58;10.90;98.50
21612;DHT22;47005;52.292;13.452;2023-05-07T03:47:24;10.80;98.50
21612;DHT22;47005;52.292;13.452;2023-05-07T03:49:49;10.80;98.50
21612;DHT22;47005;52.292;13.452;2023-05-07T03:52:16;10.80;98.40
21612;DHT22;47005;52.292;13.452;2023-05-07T03:54:41;10.80;98.40
21612;DHT22;47005;52.292;13.452;2023-05-07T03:57:07;10.80;98.50
21612;DHT22;47005;52.292;13.452;2023-05-07T03:59:33;10.80;98.50
21612;DHT22;47005;52.292;13.452;2023-05-07T04:01:58;10.80;98.60
21612;DHT22;47005;52.292;13.452;2023-05-07T04:04:24;10.80;98.80
21612;DHT22;47005;52.292;13.452;2023-05-07T04:06:49;10.80;98.60
21612;DHT22;47005;52.292;13.452;2023-05-07T04:09:15;10.80;98.60
21612;DHT22;47005;52.292;13.452;2023-05-07T04:11:41;10.80;98.60
21612;DHT22;47005;52.292;13.452;2023-05-07T04:14:06;10.80;98.60
21612;DHT22;47005;52.292;13.452;2023-05-07T04:16:32;10.80;98.60
21612;DHT22;47005;52.292;13.452;2023-05-07T04:18:59;10.80;98.50
21612;DHT22;47005;52.292;13.452;2023-05-07T04:21:25;10.80;98.50
21612;DHT22;47005;52.292;13.452;2023-05-07T04:23:51;10.80;98.50
21612;DHT22;47005;52.292;13.452;2023-05-07T04:26:17;10.80;98.60
21612;DHT22;47005;52.292;13.452;2023-05-07T04:28:43;10.80;98.50
21612;DHT22;47005;52.292;13.452;2023-05-07T04:31:09;10.80;98.50
21612;DHT22;47005;52.292;13.452;2023-05-07T04:33:34;10.80;98.50
21612;DHT22;47005;52.292;13.452;2023-05-07T04:36:04;10.80;98.50
21612;DHT22;47005;52.292;13.452;2023-05-07T04:38:30;10.80;98.40
21612;DHT22;47005;52.292;13.452;2023-05-07T04:40:57;10.80;98.40
21612;DHT22;47005;52.292;13.452;2023-05-07T04:43:23;10.80;98.40
21612;DHT22;47005;52.292;13.452;2023-05-07T04:45:52;10.80;98.30
21612;DHT22;47005;52.292;13.452;2023-05-07T04:48:17;10.80;98.40
21612;DHT22;47005;52.292;13.452;2023-05-07T04:50:47;10.80;98.40
21612;DHT22;47005;52.292;13.452;2023-05-07T04:53:13;10.80;98.50
21612;DHT22;47005;52.292;13.452;2023-05-07T04:55:39;10.80;98.50
21612;DHT22;47005;52.292;13.452;2023-05-07T04:58:04;10.80;98.70
21612;DHT22;47005;52.292;13.452;2023-05-07T05:00:30;10.80;98.60
21612;DHT22;47005;52.292;13.452;2023-05-07T05:02:56;10.80;98.50
21612;DHT22;47005;52.292;13.452;2023-05-07T05:05:22;10.80;98.60
21612;DHT22;47005;52.292;13.452;2023-05-07T05:07:47;10.80;98.50
21612;DHT22;47005;52.292;13.452;2023-05-07T05:10:13;10.80;98.50
21612;DHT22;47005;52.292;13.452;2023-05-07T05:12:39;10.80;98.50
21612;DHT22;47005;52.292;13.452;2023-05-07T05:15:05;10.80;98.50
21612;DHT22;47005;52.292;13.452;2023-05-07T05:17:31;10.80;98.40
21612;DHT22;47005;52.292;13.452;2023-05-07T05:19:57;10.80;98.40
21612;DHT22;47005;52.292;13.452;2023-05-07T05:22:22;10.80;98.40
21612;DHT22;47005;52.292;13.452;2023-05-07T05:24:48;10.80;98.30
21612;DHT22;47005;52.292;13.452;2023-05-07T05:27:13;10.80;98.40
21612;DHT22;47005;52.292;13.452;2023-05-07T05:29:39;10.80;98.30
21612;DHT22;47005;52.292;13.452;2023-05-07T05:32:05;10.90;98.30
21612;DHT22;47005;52.292;13.452;2023-05-07T05:34:30;10.80;98.30
21612;DHT22;47005;52.292;13.452;2023-05-07T05:36:56;10.80;98.40
21612;DHT22;47005;52.292;13.452;2023-05-07T05:39:22;10.80;98.40
21612;DHT22;47005;52.292;13.452;2023-05-07T05:41:48;10.90;98.40
21612;DHT22;47005;52.292;13.452;2023-05-07T05:44:14;10.90;98.30
21612;DHT22;47005;52.292;13.452;2023-05-07T05:46:39;10.90;98.40
21612;DHT22;47005;52.292;13.452;2023-05-07T05:49:05;10.90;98.30
21612;DHT22;47005;52.292;13.452;2023-05-07T05:51:31;10.90;98.40
21612;DHT22;47005;52.292;13.452;2023-05-07T05:53:57;10.90;98.40
21612;DHT22;47005;52.292;13.452;2023-05-07T05:56:22;10.90;98.20
21612;DHT22;47005;52.292;13.452;2023-05-07T05:58:48;10.90;98.30
21612;DHT22;47005;52.292;13.452;2023-05-07T06:01:14;11.00;98.20
21612;DHT22;47005;52.292;13.452;2023-05-07T06:03:39;10.90;98.30
21612;DHT22;47005;52.292;13.452;2023-05-07T06:06:05;11.00;98.20
21612;DHT22;47005;52.292;13.452;2023-05-07T06:08:31;11.00;98.20
21612;DHT22;47005;52.292;13.452;2023-05-07T06:10:57;11.00;98.00
21612;DHT22;47005;52.292;13.452;2023-05-07T06:13:23;11.00;98.00
21612;DHT22;47005;52.292;13.452;2023-05-07T06:15:49;11.10;98.10
21612;DHT22;47005;52.292;13.452;2023-05-07T06:18:15;11.10;98.00
21612;DHT22;47005;52.292;13.452;2023-05-07T06:20:40;11.10;97.90
21612;DHT22;47005;52.292;13.452;2023-05-07T06:23:06;11.10;97.80
21612;DHT22;47005;52.292;13.452;2023-05-07T06:25:32;11.10;97.70
21612;DHT22;47005;52.292;13.452;2023-05-07T06:27:57;11.10;97.60
21612;DHT22;47005;52.292;13.452;2023-05-07T06:30:23;11.20;97.70
21612;DHT22;47005;52.292;13.452;2023-05-07T06:32:49;11.20;97.70
21612;DHT22;47005;52.292;13.452;2023-05-07T06:35:14;11.20;97.70
21612;DHT22;47005;52.292;13.452;2023-05-07T06:37:41;11.30;97.70
21612;DHT22;47005;52.292;13.452;2023-05-07T06:40:08;11.30;97.70
21612;DHT22;47005;52.292;13.452;2023-05-07T06:42:35;11.30;97.70
21612;DHT22;47005;52.292;13.452;2023-05-07T06:45:02;11.30;97.70
21612;DHT22;47005;52.292;13.452;2023-05-07T06:47:28;11.30;97.60
21612;DHT22;47005;52.292;13.452;2023-05-07T06:49:54;11.40;97.50
21612;DHT22;47005;52.292;13.452;2023-05-07T06:52:19;11.40;97.50
21612;DHT22;47005;52.292;13.452;2023-05-07T06:54:45;11.40;97.50
21612;DHT22;47005;52.292;13.452;2023-05-07T06:57:11;11.40;97.50
21612;DHT22;47005;52.292;13.452;2023-05-07T06:59:36;11.40;97.40
21612;DHT22;47005;52.292;13.452;2023-05-07T07:02:02;11.50;97.30
21612;DHT22;47005;52.292;13.452;2023-05-07T07:04:28;11.50;97.30
21612;DHT22;47005;52.292;13.452;2023-05-07T07:06:54;11.50;97.30
21612;DHT22;47005;52.292;13.452;2023-05-07T07:09:22;11.50;97.20
21612;DHT22;47005;52.292;13.452;2023-05-07T07:11:48;11.50;97.20
21612;DHT22;47005;52.292;13.452;2023-05-07T07:14:14;11.50;97.20
21612;DHT22;47005;52.292;13.452;2023-05-07T07:16:40;11.60;97.10
21612;DHT22;47005;52.292;13.452;2023-05-07T07:19:06;11.60;97.00
21612;DHT22;47005;52.292;13.452;2023-05-07T07:21:31;11.60;97.10
21612;DHT22;47005;52.292;13.452;2023-05-07T07:23:58;11.70;97.10
21612;DHT22;47005;52.292;13.452;2023-05-07T07:26:23;11.70;97.20
21612;DHT22;47005;52.292;13.452;2023-05-07T07:28:49;11.70;96.90
21612;DHT22;47005;52.292;13.452;2023-05-07T07:31:17;11.70;96.90
21612;DHT22;47005;52.292;13.452;2023-05-07T07:33:46;11.80;96.90
21612;DHT22;47005;52.292;13.452;2023-05-07T07:36:12;11.80;96.80
21612;DHT22;47005;52.292;13.452;2023-05-07T07:38:37;11.80;96.70
21612;DHT22;47005;52.292;13.452;2023-05-07T07:41:04;11.90;96.90
21612;DHT22;47005;52.292;13.452;2023-05-07T07:43:29;11.90;96.90
21612;DHT22;47005;52.292;13.452;2023-05-07T07:45:55;12.00;96.60
21612;DHT22;47005;52.292;13.452;2023-05-07T07:48:21;12.00;96.50
21612;DHT22;47005;52.292;13.452;2023-05-07T07:50:49;12.10;96.50
21612;DHT22;47005;52.292;13.452;2023-05-07T07:53:16;12.10;96.20
21612;DHT22;47005;52.292;13.452;2023-05-07T07:55:42;12.20;96.40
21612;DHT22;47005;52.292;13.452;2023-05-07T07:58:08;12.20;96.30
21612;DHT22;47005;52.292;13.452;2023-05-07T08:00:33;12.20;96.30
21612;DHT22;47005;52.292;13.452;2023-05-07T08:02:59;12.30;96.10
21612;DHT22;47005;52.292;13.452;2023-05-07T08:05:25;12.30;96.20
21612;DHT22;47005;52.292;13.452;2023-05-07T08:07:51;12.30;96.00
21612;DHT22;47005;52.292;13.452;2023-05-07T08:10:18;12.40;95.70
21612;DHT22;47005;52.292;13.452;2023-05-07T08:12:48;12.40;95.70
21612;DHT22;47005;52.292;13.452;2023-05-07T08:15:15;12.40;95.60
21612;DHT22;47005;52.292;13.452;2023-05-07T08:17:41;12.50;95.70
21612;DHT22;47005;52.292;13.452;2023-05-07T08:20:07;12.50;95.80
21612;DHT22;47005;52.292;13.452;2023-05-07T08:22:37;12.50;95.80
21612;DHT22;47005;52.292;13.452;2023-05-07T08:25:06;12.50;95.70
21612;DHT22;47005;52.292;13.452;2023-05-07T08:27:31;12.60;95.70
21612;DHT22;47005;52.292;13.452;2023-05-07T08:29:57;12.60;95.50
21612;DHT22;47005;52.292;13.452;2023-05-07T08:32:23;12.60;95.30
21612;DHT22;47005;52.292;13.452;2023-05-07T08:34:48;12.60;95.40
21612;DHT22;47005;52.292;13.452;2023-05-07T08:37:14;12.60;95.50
21612;DHT22;47005;52.292;13.452;2023-05-07T08:39:39;12.60;95.60
21612;DHT22;47005;52.292;13.452;2023-05-07T08:42:06;12.60;95.60
21612;DHT22;47005;52.292;13.452;2023-05-07T08:44:34;12.60;95.60
21612;DHT22;47005;52.292;13.452;2023-05-07T08:47:01;12.70;95.50
21612;DHT22;47005;52.292;13.452;2023-05-07T08:49:30;12.70;95.50
21612;DHT22;47005;52.292;13.452;2023-05-07T08:51:56;12.70;95.60
21612;DHT22;47005;52.292;13.452;2023-05-07T08:54:22;12.70;95.50
21612;DHT22;47005;52.292;13.452;2023-05-07T08:56:48;12.80;95.90
21612;DHT22;47005;52.292;13.452;2023-05-07T08:59:14;12.80;95.70
21612;DHT22;47005;52.292;13.452;2023-05-07T09:01:40;12.90;95.70
21612;DHT22;47005;52.292;13.452;2023-05-07T09:04:05;12.90;95.90
21612;DHT22;47005;52.292;13.452;2023-05-07T09:06:33;13.00;95.80
21612;DHT22;47005;52.292;13.452;2023-05-07T09:09:00;13.10;95.30
21612;DHT22;47005;52.292;13.452;2023-05-07T09:11:27;13.10;95.60
21612;DHT22;47005;52.292;13.452;2023-05-07T09:13:56;13.20;95.30
21612;DHT22;47005;52.292;13.452;2023-05-07T09:16:25;13.20;95.10
21612;DHT22;47005;52.292;13.452;2023-05-07T09:18:52;13.20;95.20
21612;DHT22;47005;52.292;13.452;2023-05-07T09:21:19;13.30;95.20
21612;DHT22;47005;52.292;13.452;2023-05-07T09:23:45;13.30;95.20
21612;DHT22;47005;52.292;13.452;2023-05-07T09:26:14;13.30;95.10
21612;DHT22;47005;52.292;13.452;2023-05-07T09:28:40;13.40;94.90
21612;DHT22;47005;52.292;13.452;2023-05-07T09:31:07;13.40;94.90
21612;DHT22;47005;52.292;13.452;2023-05-07T09:33:33;13.50;94.60
21612;DHT22;47005;52.292;13.452;2023-05-07T09:36:03;13.50;94.30
21612;DHT22;47005;52.292;13.452;2023-05-07T09:38:28;13.50;94.50
21612;DHT22;47005;52.292;13.452;2023-05-07T09:41:08;13.60;94.30
21612;DHT22;47005;52.292;13.452;2023-05-07T09:43:35;13.60;94.10
21612;DHT22;47005;52.292;13.452;2023-05-07T09:46:05;13.60;93.50
21612;DHT22;47005;52.292;13.452;2023-05-07T09:48:34;13.70;93.60
21612;DHT22;47005;52.292;13.452;2023-05-07T09:51:03;13.70;93.20
21612;DHT22;47005;52.292;13.452;2023-05-07T09:53:30;13.70;92.50
21612;DHT22;47005;52.292;13.452;2023-05-07T09:55:57;13.70;92.90
21612;DHT22;47005;52.292;13.452;2023-05-07T09:58:23;13.70;92.70
21612;DHT22;47005;52.292;13.452;2023-05-07T10:00:51;13.70;92.90
21612;DHT22;47005;52.292;13.452;2023-05-07T10:03:19;13.60;92.80
21612;DHT22;47005;52.292;13.452;2023-05-07T10:05:46;13.60;92.90
21612;DHT22;47005;52.292;13.452;2023-05-07T10:08:13;13.60;92.80
21612;DHT22;47005;52.292;13.452;2023-05-07T10:10:40;13.60;92.60
21612;DHT22;47005;52.292;13.452;2023-05-07T10:13:06;13.60;92.70
21612;DHT22;47005;52.292;13.452;2023-05-07T10:15:36;13.60;92.90
21612;DHT22;47005;52.292;13.452;2023-05-07T10:18:06;13.60;92.70
21612;DHT22;47005;52.292;13.452;2023-05-07T10:20:33;13.50;92.70
21612;DHT22;47005;52.292;13.452;2023-05-07T10:23:03;13.60;92.50
21612;DHT22;47005;52.292;13.452;2023-05-07T10:25:31;13.60;92.90
21612;DHT22;47005;52.292;13.452;2023-05-07T10:28:01;13.60;92.70
21612;DHT22;47005;52.292;13.452;2023-05-07T10:33:15;13.70;92.30
21612;DHT22;47005;52.292;13.452;2023-05-07T10:35:43;13.80;92.40
21612;DHT22;47005;52.292;13.452;2023-05-07T10:38:10;13.80;92.30
21612;DHT22;47005;52.292;13.452;2023-05-07T10:40:36;13.90;92.00
21612;DHT22;47005;52.292;13.452;2023-05-07T10:43:03;14.00;91.90
21612;DHT22;47005;52.292;13.452;2023-05-07T10:45:33;14.00;92.10
21612;DHT22;47005;52.292;13.452;2023-05-07T10:48:14;14.10;92.20
21612;DHT22;47005;52.292;13.452;2023-05-07T10:50:41;14.10;92.30
21612;DHT22;47005;52.292;13.452;2023-05-07T10:55:46;14.20;91.60
21612;DHT22;47005;52.292;13.452;2023-05-07T11:00:48;14.30;91.40
21612;DHT22;47005;52.292;13.452;2023-05-07T11:03:14;14.30;91.70
21612;DHT22;47005;52.292;13.452;2023-05-07T11:05:41;14.30;91.40
21612;DHT22;47005;52.292;13.452;2023-05-07T11:08:08;14.40;91.20
21612;DHT22;47005;52.292;13.452;2023-05-07T11:10:54;14.40;91.10
21612;DHT22;47005;52.292;13.452;2023-05-07T11:13:45;14.40;91.60
21612;DHT22;47005;52.292;13.452;2023-05-07T11:16:24;14.50;91.40
21612;DHT22;47005;52.292;13.452;2023-05-07T11:18:53;14.50;91.50
21612;DHT22;47005;52.292;13.452;2023-05-07T11:24:03;14.60;91.10
21612;DHT22;47005;52.292;13.452;2023-05-07T11:26:49;14.60;91.50
21612;DHT22;47005;52.292;13.452;2023-05-07T11:29:18;14.60;90.90
21612;DHT22;47005;52.292;13.452;2023-05-07T11:31:49;14.60;91.20
21612;DHT22;47005;52.292;13.452;2023-05-07T11:34:15;14.70;90.30
21612;DHT22;47005;52.292;13.452;2023-05-07T11:36:46;14.70;90.50
21612;DHT22;47005;52.292;13.452;2023-05-07T11:39:30;14.70;90.60
21612;DHT22;47005;52.292;13.452;2023-05-07T11:41:57;14.80;90.60
21612;DHT22;47005;52.292;13.452;2023-05-07T11:44:22;14.70;90.00
21612;DHT22;47005;52.292;13.452;2023-05-07T11:46:48;14.80;89.70
21612;DHT22;47005;52.292;13.452;2023-05-07T11:49:14;14.80;89.80
21612;DHT22;47005;52.292;13.452;2023-05-07T11:51:41;14.80;90.20
21612;DHT22;47005;52.292;13.452;2023-05-07T11:54:08;14.80;90.10
21612;DHT22;47005;52.292;13.452;2023-05-07T11:56:37;14.80;90.30
21612;DHT22;47005;52.292;13.452;2023-05-07T11:59:03;14.80;90.00
21612;DHT22;47005;52.292;13.452;2023-05-07T12:01:29;14.90;89.00
21612;DHT22;47005;52.292;13.452;2023-05-07T12:03:54;14.90;90.10
21612;DHT22;47005;52.292;13.452;2023-05-07T12:06:20;14.90;90.10
21612;DHT22;47005;52.292;13.452;2023-05-07T12:08:46;14.90;89.10
21612;DHT22;47005;52.292;13.452;2023-05-07T12:11:30;15.00;90.50
21612;DHT22;47005;52.292;13.452;2023-05-07T12:13:55;15.00;90.60
21612;DHT22;47005;52.292;13.452;2023-05-07T12:16:21;15.10;89.50
21612;DHT22;47005;52.292;13.452;2023-05-07T12:18:47;15.30;89.20
21612;DHT22;47005;52.292;13.452;2023-05-07T12:21:14;15.40;87.80
21612;DHT22;47005;52.292;13.452;2023-05-07T12:23:40;15.50;86.00
21612;DHT22;47005;52.292;13.452;2023-05-07T12:26:06;15.60;86.10
21612;DHT22;47005;52.292;13.452;2023-05-07T12:28:36;15.60;86.80
21612;DHT22;47005;52.292;13.452;2023-05-07T12:31:03;15.70;85.20
21612;DHT22;47005;52.292;13.452;2023-05-07T12:33:29;15.70;85.30
21612;DHT22;47005;52.292;13.452;2023-05-07T12:35:56;15.80;85.70
21612;DHT22;47005;52.292;13.452;2023-05-07T12:38:22;15.80;86.20
21612;DHT22;47005;52.292;13.452;2023-05-07T12:40:50;15.80;85.00
21612;DHT22;47005;52.292;13.452;2023-05-07T12:45:47;15.90;83.40
21612;DHT22;47005;52.292;13.452;2023-05-07T12:48:13;15.90;84.90
21612;DHT22;47005;52.292;13.452;2023-05-07T12:50:39;16.00;85.40
21612;DHT22;47005;52.292;13.452;2023-05-07T12:53:06;16.10;85.50
21612;DHT22;47005;52.292;13.452;2023-05-07T12:55:43;16.30;84.60
21612;DHT22;47005;52.292;13.452;2023-05-07T12:58:18;16.50;83.30
21612;DHT22;47005;52.292;13.452;2023-05-07T13:00:44;16.60;83.70
21612;DHT22;47005;52.292;13.452;2023-05-07T13:03:10;16.60;83.50
21612;DHT22;47005;52.292;13.452;2023-05-07T13:05:41;16.60;82.90
21612;DHT22;47005;52.292;13.452;2023-05-07T13:08:07;16.70;82.20
21612;DHT22;47005;52.292;13.452;2023-05-07T13:10:35;16.70;82.80
21612;DHT22;47005;52.292;13.452;2023-05-07T13:13:00;16.70;82.10
21612;DHT22;47005;52.292;13.452;2023-05-07T13:15:26;16.80;82.50
21612;DHT22;47005;52.292;13.452;2023-05-07T13:17:52;16.90;81.70
21612;DHT22;47005;52.292;13.452;2023-05-07T13:20:18;17.20;81.20
21612;DHT22;47005;52.292;13.452;2023-05-07T13:22:46;17.40;82.50
21612;DHT22;47005;52.292;13.452;2023-05-07T13:25:12;17.70;81.30
21612;DHT22;47005;52.292;13.452;2023-05-07T13:27:38;18.00;79.90
21612;DHT22;47005;52.292;13.452;2023-05-07T13:30:05;18.20;78.10
21612;DHT22;47005;52.292;13.452;2023-05-07T13:32:31;18.50;79.30
21612;DHT22;47005;52.292;13.452;2023-05-07T13:34:57;18.60;78.80
21612;DHT22;47005;52.292;13.452;2023-05-07T13:37:22;18.70;77.70
21612;DHT22;47005;52.292;13.452;2023-05-07T13:39:48;18.80;77.10
21612;DHT22;47005;52.292;13.452;2023-05-07T13:42:13;18.90;76.60
21612;DHT22;47005;52.292;13.452;2023-05-07T13:44:39;19.00;77.70
21612;DHT22;47005;52.292;13.452;2023-05-07T13:47:05;19.00;76.90
21612;DHT22;47005;52.292;13.452;2023-05-07T13:49:31;19.00;77.40
21612;DHT22;47005;52.292;13.452;2023-05-07T13:51:57;19.00;73.60
21612;DHT22;47005;52.292;13.452;2023-05-07T13:54:22;18.90;74.20
21612;DHT22;47005;52.292;13.452;2023-05-07T13:56:48;18.90;75.20
21612;DHT22;47005;52.292;13.452;2023-05-07T13:59:13;18.80;73.70
21612;DHT22;47005;52.292;13.452;2023-05-07T14:01:40;18.80;75.60
21612;DHT22;47005;52.292;13.452;2023-05-07T14:04:05;18.70;74.70
21612;DHT22;47005;52.292;13.452;2023-05-07T14:06:31;18.70;75.30
21612;DHT22;47005;52.292;13.452;2023-05-07T14:08:57;18.60;74.40
21612;DHT22;47005;52.292;13.452;2023-05-07T14:11:23;18.50;75.90
21612;DHT22;47005;52.292;13.452;2023-05-07T14:13:49;18.50;75.10
21612;DHT22;47005;52.292;13.452;2023-05-07T14:16:14;18.40;75.00
21612;DHT22;47005;52.292;13.452;2023-05-07T14:18:40;18.30;73.70
21612;DHT22;47005;52.292;13.452;2023-05-07T14:21:06;18.20;75.70
21612;DHT22;47005;52.292;13.452;2023-05-07T14:23:32;18.10;76.00
21612;DHT22;47005;52.292;13.452;2023-05-07T14:25:58;18.00;76.40
21612;DHT22;47005;52.292;13.452;2023-05-07T14:28:23;17.90;76.20
21612;DHT22;47005;52.292;13.452;2023-05-07T14:30:49;17.90;77.00
21612;DHT22;47005;52.292;13.452;2023-05-07T14:33:15;17.90;77.40
21612;DHT22;47005;52.292;13.452;2023-05-07T14:35:43;17.80;77.10
21612;DHT22;47005;52.292;13.452;2023-05-07T14:38:16;17.90;76.70
21612;DHT22;47005;52.292;13.452;2023-05-07T14:40:42;17.90;76.70
21612;DHT22;47005;52.292;13.452;2023-05-07T14:43:08;18.00;76.70
21612;DHT22;47005;52.292;13.452;2023-05-07T14:45:33;18.00;76.20
21612;DHT22;47005;52.292;13.452;2023-05-07T14:47:59;18.10;76.30
21612;DHT22;47005;52.292;13.452;2023-05-07T14:50:25;18.20;76.00
21612;DHT22;47005;52.292;13.452;2023-05-07T14:52:51;18.20;74.20
21612;DHT22;47005;52.292;13.452;2023-05-07T14:55:16;18.30;75.20
21612;DHT22;47005;52.292;13.452;2023-05-07T14:57:42;18.30;75.40
21612;DHT22;47005;52.292;13.452;2023-05-07T15:00:08;18.20;74.70
21612;DHT22;47005;52.292;13.452;2023-05-07T15:02:35;18.20;76.30
21612;DHT22;47005;52.292;13.452;2023-05-07T15:05:00;18.10;74.80
21612;DHT22;47005;52.292;13.452;2023-05-07T15:07:26;18.00;75.10
21612;DHT22;47005;52.292;13.452;2023-05-07T15:09:52;18.00;73.70
21612;DHT22;47005;52.292;13.452;2023-05-07T15:12:18;17.90;75.40
21612;DHT22;47005;52.292;13.452;2023-05-07T15:14:43;17.90;75.40
21612;DHT22;47005;52.292;13.452;2023-05-07T15:17:09;17.80;76.20
21612;DHT22;47005;52.292;13.452;2023-05-07T15:19:35;17.70;76.20
21612;DHT22;47005;52.292;13.452;2023-05-07T15:22:01;17.70;77.00
21612;DHT22;47005;52.292;13.452;2023-05-07T15:24:30;17.60;76.10